Time;durP1;ratioP1;P1;durP2;ratioP2;P2;SDS_P1;SDS_P2;PMS_P1;PMS_P2;Temp;Humidity;BMP_temperature;BMP_pressure;BME280_temperature;BME280_humidity;BME280_pressure;Samples;Min_cycle;Max_cycle;Signal;HPM_P1;HPM_P2
2021/04/20 04:12:37;;;;;;;6.53;1.70;;;4.90;69.90;;;;;;5036988;28;20059;-66
2021/04/20 04:15:05;;;;;;;3.75;1.42;;;5.40;69.20;;;;;;5032994;28;20083;-66
2021/04/20 04:17:32;;;;;;;12.43;1.85;;;5.80;67.90;;;;;;5032723;28;20031;-66
2021/04/20 04:20:02;;;;;;;11.57;2.08;;;6.20;67.20;;;;;;5033160;28;20033;-65
2021/04/20 04:22:50;;;;;;;70.00;5.40;;;6.70;66.20;;;;;;5052546;28;20448;-65
2021/04/20 04:25:21;;;;;;;49.58;5.70;;;7.00;65.00;;;;;;5054578;28;20048;-66
2021/04/20 04:27:50;;;;;;;46.65;3.65;;;7.30;64.70;;;;;;5049147;28;20049;-66
2021/04/20 04:30:17;;;;;;;49.80;3.85;;;7.70;63.90;;;;;;5033089;28;20376;-67
2021/04/20 04:32:44;;;;;;;100.15;7.03;;;8.00;62.80;;;;;;5038056;28;20112;-67
2021/04/20 04:35:11;;;;;;;70.45;7.60;;;8.20;61.60;;;;;;5047879;28;20032;-66
2021/04/20 04:37:38;;;;;;;19.17;1.73;;;8.40;61.70;;;;;;5038790;28;20025;-65
2021/04/20 04:40:06;;;;;;;8.57;1.38;;;8.90;70.90;;;;;;5040735;28;20036;-65
2021/04/20 04:42:32;;;;;;;20.15;2.13;;;10.80;86.20;;;;;;5034049;28;20377;-63
2021/04/20 04:45:01;;;;;;;31.00;3.35;;;12.30;75.30;;;;;;5033735;28;20033;-67
2021/04/20 04:47:28;;;;;;;98.15;7.82;;;13.20;71.20;;;;;;5052044;28;20017;-66
2021/04/20 04:50:00;;;;;;;157.50;11.65;;;13.10;58.00;;;;;;5052268;28;20850;-66
2021/04/20 04:52:27;;;;;;;130.48;11.25;;;12.40;56.90;;;;;;5047235;28;20097;-66
2021/04/20 04:54:52;;;;;;;132.65;8.68;;;12.00;57.00;;;;;;5046889;28;20442;-66
2021/04/20 04:57:20;;;;;;;63.20;6.07;;;11.80;56.80;;;;;;5046047;28;20053;-66
2021/04/20 04:59:47;;;;;;;84.45;7.70;;;11.70;56.70;;;;;;5042511;28;20025;-67
2021/04/20 05:02:13;;;;;;;81.13;6.95;;;11.70;55.90;;;;;;5043102;28;20025;-67
2021/04/20 05:04:39;;;;;;;81.20;6.32;;;11.80;55.50;;;;;;5047480;28;20385;-67
2021/04/20 05:07:04;;;;;;;64.43;6.82;;;11.80;55.10;;;;;;5051277;28;20469;-67
2021/04/20 05:09:30;;;;;;;70.57;5.22;;;11.90;54.50;;;;;;5044217;28;20562;-67
2021/04/20 05:11:57;;;;;;;87.45;6.60;;;12.10;54.00;;;;;;5044440;28;20068;-67
2021/04/20 05:14:23;;;;;;;106.60;7.72;;;12.30;53.00;;;;;;5048422;28;20120;-66
2021/04/20 05:16:53;;;;;;;150.73;10.20;;;12.50;52.90;;;;;;5037625;28;20033;-66
2021/04/20 05:19:29;;;;;;;75.95;6.07;;;12.70;52.70;;;;;;5037428;28;20033;-63
2021/04/20 05:21:58;;;;;;;136.93;8.95;;;13.10;58.90;;;;;;5042121;28;20036;-64
2021/04/20 05:24:24;;;;;;;127.45;8.50;;;14.20;60.00;;;;;;5043615;28;20036;-69
2021/04/20 05:26:50;;;;;;;127.13;9.60;;;14.30;51.50;;;;;;5035711;28;20029;-68
2021/04/20 05:29:17;;;;;;;56.10;6.07;;;14.20;50.30;;;;;;5051916;28;20126;-68
2021/04/20 05:31:43;;;;;;;77.00;6.15;;;14.00;49.30;;;;;;5051173;28;20066;-69
2021/04/20 05:34:09;;;;;;;59.25;7.40;;;14.10;49.20;;;;;;5051672;28;20472;-69
2021/04/20 05:36:37;;;;;;;114.30;6.25;;;14.20;48.70;;;;;;5051450;28;20108;-69
2021/04/20 05:39:09;;;;;;;31.15;3.88;;;14.40;47.20;;;;;;5051421;28;20025;-69
2021/04/20 05:41:36;;;;;;;45.40;3.60;;;14.50;46.00;;;;;;5038268;28;20087;-68
2021/04/20 05:44:04;;;;;;;46.85;4.40;;;14.70;45.80;;;;;;5041974;28;20025;-69
2021/04/20 05:46:30;;;;;;;37.92;4.47;;;14.80;45.80;;;;;;5043183;28;20061;-69
2021/04/20 05:48:57;;;;;;;20.83;2.00;;;15.00;45.80;;;;;;5046665;28;20056;-69
2021/04/20 05:51:24;;;;;;;21.42;2.30;;;15.00;45.00;;;;;;5033895;28;20030;-69
2021/04/20 05:53:52;;;;;;;19.80;2.10;;;15.10;45.30;;;;;;5043602;28;20488;-69
2021/04/20 05:56:19;;;;;;;27.10;4.22;;;15.20;44.10;;;;;;5037155;28;20430;-69
2021/04/20 05:58:46;;;;;;;46.35;6.32;;;15.30;44.50;;;;;;5031490;28;20083;-67
2021/04/20 06:01:12;;;;;;;29.00;3.10;;;15.40;44.50;;;;;;5031619;28;20095;-67
2021/04/20 06:03:40;;;;;;;35.63;3.50;;;15.50;44.10;;;;;;5033582;28;20098;-68
2021/04/20 06:06:07;;;;;;;27.60;2.75;;;15.60;44.00;;;;;;5033373;28;20497;-66
2021/04/20 06:08:35;;;;;;;32.97;3.33;;;15.80;43.40;;;;;;5034183;28;20021;-65
2021/04/20 06:11:04;;;;;;;18.70;2.97;;;15.70;43.60;;;;;;5051337;28;20021;-68
2021/04/20 06:13:31;;;;;;;22.98;2.53;;;16.00;44.10;;;;;;5046556;28;20049;-66
2021/04/20 06:15:57;;;;;;;25.73;2.75;;;16.10;43.50;;;;;;5049602;28;20452;-70
2021/04/20 06:18:26;;;;;;;21.83;3.10;;;16.10;43.50;;;;;;5042592;28;20120;-74
2021/04/20 06:20:55;;;;;;;25.10;3.30;;;16.00;42.80;;;;;;5041367;28;20346;-66
2021/04/20 06:23:21;;;;;;;29.02;3.22;;;15.80;42.80;;;;;;5040681;28;20025;-67
2021/04/20 06:25:48;;;;;;;22.75;2.05;;;15.90;42.80;;;;;;5045964;28;20030;-66
2021/04/20 06:28:14;;;;;;;20.95;2.60;;;16.10;42.80;;;;;;5046973;28;20109;-67
2021/04/20 06:30:41;;;;;;;32.33;3.38;;;16.10;42.90;;;;;;5047425;28;20474;-67
2021/04/20 06:33:09;;;;;;;26.50;4.03;;;16.20;42.10;;;;;;5050635;28;20436;-67
2021/04/20 06:35:37;;;;;;;35.95;4.47;;;16.20;42.60;;;;;;5050819;28;20029;-69
2021/04/20 06:38:03;;;;;;;91.97;7.03;;;16.30;42.10;;;;;;5040824;28;20029;-68
2021/04/20 06:40:34;;;;;;;26.25;2.58;;;16.20;44.50;;;;;;5041876;28;20460;-66
2021/04/20 06:43:03;;;;;;;27.42;2.90;;;16.00;43.40;;;;;;5044998;28;20021;-66
2021/04/20 06:45:33;;;;;;;24.02;2.47;;;16.10;43.40;;;;;;5031111;28;20025;-65
2021/04/20 06:48:06;;;;;;;32.65;2.88;;;16.20;42.80;;;;;;5046117;28;20499;-65
2021/04/20 06:50:34;;;;;;;26.65;3.05;;;16.30;42.50;;;;;;5036487;28;20170;-65
2021/04/20 06:53:19;;;;;;;32.72;3.58;;;16.40;42.70;;;;;;5050826;28;20048;-66
2021/04/20 06:56:04;;;;;;;25.60;2.70;;;16.50;42.70;;;;;;5050594;28;20438;-66
2021/04/20 06:58:48;;;;;;;19.67;2.00;;;16.50;42.10;;;;;;5037841;28;20033;-65
2021/04/20 07:01:19;;;;;;;13.27;2.20;;;16.40;42.70;;;;;;5042150;28;20039;-66
2021/04/20 07:04:06;;;;;;;15.18;2.70;;;16.40;42.70;;;;;;5040183;28;20025;-65
2021/04/20 07:06:37;;;;;;;60.38;3.15;;;16.40;42.30;;;;;;5045126;28;20032;-65
2021/04/20 07:09:11;;;;;;;107.55;6.78;;;16.40;42.20;;;;;;5045234;28;20104;-65
2021/04/20 07:11:45;;;;;;;18.33;1.50;;;16.60;41.90;;;;;;5045740;28;20029;-66
2021/04/20 07:14:20;;;;;;;16.35;2.15;;;16.60;41.50;;;;;;5047962;28;20048;-66
2021/04/20 07:17:10;;;;;;;19.63;2.20;;;16.50;41.30;;;;;;5039015;28;20109;-66
2021/04/20 07:19:35;;;;;;;14.73;2.58;;;16.30;41.20;;;;;;5035603;28;20022;-67
2021/04/20 07:22:16;;;;;;;15.50;2.88;;;16.30;41.90;;;;;;5034302;28;20075;-67
2021/04/20 07:25:11;;;;;;;9.45;2.13;;;16.30;41.90;;;;;;5038589;28;20021;-67
2021/04/20 07:27:57;;;;;;;33.92;3.70;;;16.40;41.60;;;;;;5040746;28;20048;-66
2021/04/20 07:30:45;;;;;;;6.07;1.80;;;16.30;41.80;;;;;;5038312;28;20025;-66
2021/04/20 07:33:48;;;;;;;9.23;1.80;;;16.20;42.50;;;;;;5042500;28;20055;-66
2021/04/20 07:36:21;;;;;;;11.35;1.40;;;15.90;42.50;;;;;;5047721;28;20025;-66
2021/04/20 07:39:07;;;;;;;6.15;1.85;;;16.00;42.90;;;;;;5046541;28;20025;-66
2021/04/20 07:42:02;;;;;;;9.27;1.73;;;15.90;42.60;;;;;;5033773;28;20099;-66
2021/04/20 07:45:13;;;;;;;7.30;1.40;;;15.60;43.00;;;;;;5036210;28;20017;-67
2021/04/20 07:47:52;;;;;;;14.43;2.08;;;15.60;42.90;;;;;;5053349;28;20025;-67
2021/04/20 07:50:24;;;;;;;6.55;1.88;;;15.50;43.70;;;;;;5053711;28;20028;-67
2021/04/20 07:53:00;;;;;;;11.68;1.90;;;15.50;43.30;;;;;;5053043;28;20492;-67
2021/04/20 07:55:47;;;;;;;12.77;1.70;;;15.40;43.80;;;;;;5053571;28;20029;-67
2021/04/20 07:58:20;;;;;;;29.27;3.55;;;15.40;43.90;;;;;;5052557;28;20075;-66
2021/04/20 08:01:03;;;;;;;5.65;1.30;;;15.30;45.30;;;;;;5052980;28;20603;-66
2021/04/20 08:03:45;;;;;;;12.82;1.60;;;15.30;44.60;;;;;;5038726;28;20029;-66
2021/04/20 08:06:23;;;;;;;7.85;1.55;;;15.30;44.10;;;;;;5042195;28;20030;-67
2021/04/20 08:09:01;;;;;;;7.90;2.00;;;15.20;44.20;;;;;;5032913;28;20022;-67
2021/04/20 08:11:53;;;;;;;13.73;1.80;;;15.10;44.10;;;;;;5034481;28;20517;-66
2021/04/20 08:14:30;;;;;;;18.08;1.85;;;15.10;44.40;;;;;;5034918;28;20519;-66
2021/04/20 08:17:07;;;;;;;16.52;2.20;;;14.90;44.60;;;;;;5051947;28;20033;-66
2021/04/20 08:19:35;;;;;;;20.33;1.75;;;14.90;45.00;;;;;;5052895;28;20662;-66
2021/04/20 08:22:04;;;;;;;7.70;1.17;;;15.10;44.90;;;;;;5052550;28;20495;-66
2021/04/20 08:24:40;;;;;;;14.70;1.83;;;15.20;44.10;;;;;;5041316;28;20500;-66
2021/04/20 08:27:44;;;;;;;23.63;3.08;;;15.30;44.50;;;;;;5046534;28;20040;-66
2021/04/20 08:30:30;;;;;;;13.65;2.22;;;15.30;44.70;;;;;;5040629;28;20029;-66
2021/04/20 08:32:57;;;;;;;8.55;1.33;;;15.20;44.50;;;;;;5055047;28;20064;-66
2021/04/20 08:35:28;;;;;;;14.38;1.35;;;15.30;44.00;;;;;;5052845;28;20368;-66
2021/04/20 08:38:16;;;;;;;16.27;2.20;;;15.40;43.80;;;;;;5036663;28;20482;-65
2021/04/20 08:40:57;;;;;;;25.90;3.42;;;15.50;43.00;;;;;;5032691;28;20061;-65
2021/04/20 08:43:26;;;;;;;18.42;2.30;;;15.60;43.00;;;;;;5046672;28;20027;-66
2021/04/20 08:45:58;;;;;;;21.88;2.10;;;15.60;42.80;;;;;;5042580;28;20029;-66
2021/04/20 08:48:41;;;;;;;2.22;1.27;;;15.70;42.50;;;;;;5036371;28;20076;-66
2021/04/20 08:51:21;;;;;;;15.90;1.83;;;15.70;43.00;;;;;;5048240;28;20479;-66
2021/04/20 08:54:16;;;;;;;12.00;2.15;;;15.70;43.40;;;;;;5052279;28;20024;-66
2021/04/20 08:57:07;;;;;;;12.15;1.67;;;15.70;43.00;;;;;;5037847;28;20051;-66
2021/04/20 08:59:42;;;;;;;16.60;2.33;;;15.80;42.80;;;;;;5051793;28;20039;-66
2021/04/20 09:02:22;;;;;;;11.48;1.73;;;15.80;41.80;;;;;;5043909;28;20034;-66
2021/04/20 09:05:15;;;;;;;15.23;1.63;;;15.90;41.90;;;;;;5031956;28;20385;-66
2021/04/20 09:07:57;;;;;;;12.90;1.70;;;15.90;42.70;;;;;;5043807;28;20106;-66
2021/04/20 09:10:46;;;;;;;7.18;1.60;;;15.90;42.10;;;;;;5047974;28;20025;-66
2021/04/20 09:13:47;;;;;;;13.20;2.25;;;15.90;40.90;;;;;;5039339;28;20131;-66
2021/04/20 09:16:18;;;;;;;7.45;1.38;;;16.00;40.60;;;;;;5051966;28;20032;-66
2021/04/20 09:18:46;;;;;;;9.38;1.40;;;16.00;41.20;;;;;;5051441;28;20029;-66
2021/04/20 09:21:28;;;;;;;32.17;3.03;;;16.00;41.60;;;;;;5037296;28;20041;-66
2021/04/20 09:23:54;;;;;;;8.73;2.22;;;16.00;42.10;;;;;;5051186;28;20551;-66
2021/04/20 09:26:59;;;;;;;3.95;1.50;;;16.00;41.30;;;;;;5051547;28;20143;-66
2021/04/20 09:29:40;;;;;;;8.55;1.70;;;16.00;41.60;;;;;;5050615;28;20071;-66
2021/04/20 09:32:12;;;;;;;10.02;1.38;;;15.90;42.20;;;;;;5040673;28;20492;-66
2021/04/20 09:34:42;;;;;;;21.77;2.30;;;15.90;42.70;;;;;;5049558;28;20163;-66
2021/04/20 09:37:08;;;;;;;7.60;1.65;;;15.90;42.10;;;;;;5031499;28;20029;-66
2021/04/20 09:39:40;;;;;;;18.90;2.42;;;15.90;41.90;;;;;;5046024;28;20570;-66
2021/04/20 09:42:08;;;;;;;12.05;1.60;;;15.70;42.50;;;;;;5051599;28;20162;-66
2021/04/20 09:44:51;;;;;;;14.30;1.92;;;15.60;42.70;;;;;;5051498;28;20051;-66
2021/04/20 09:47:36;;;;;;;11.85;1.88;;;15.60;42.20;;;;;;5043175;28;20481;-66
2021/04/20 09:50:29;;;;;;;10.15;1.70;;;15.60;42.70;;;;;;5031556;28;20032;-66
2021/04/20 09:53:25;;;;;;;10.10;1.45;;;15.70;42.60;;;;;;5031580;28;20025;-66
2021/04/20 09:55:58;;;;;;;6.65;1.83;;;15.70;42.10;;;;;;5045864;28;20018;-66
2021/04/20 09:58:27;;;;;;;7.78;1.55;;;15.60;42.20;;;;;;5041982;28;20053;-66
2021/04/20 10:01:01;;;;;;;23.83;2.50;;;15.60;42.60;;;;;;5050893;28;20488;-66
2021/04/20 10:03:54;;;;;;;6.38;1.38;;;15.60;42.50;;;;;;5051169;28;20068;-66
2021/04/20 10:06:35;;;;;;;16.02;1.80;;;15.60;41.90;;;;;;5046625;28;20381;-66
2021/04/20 10:09:23;;;;;;;29.95;2.65;;;15.60;41.90;;;;;;5040862;28;20025;-66
2021/04/20 10:12:08;;;;;;;10.18;2.03;;;15.50;42.60;;;;;;5039304;28;20489;-66
2021/04/20 10:15:11;;;;;;;12.80;1.92;;;15.50;42.20;;;;;;5031126;28;20025;-66
2021/04/20 10:17:56;;;;;;;9.60;2.08;;;15.50;42.70;;;;;;5031275;28;20060;-66
2021/04/20 10:20:45;;;;;;;9.82;1.65;;;15.40;42.60;;;;;;5033445;28;20033;-66
2021/04/20 10:23:43;;;;;;;8.57;1.70;;;15.40;42.40;;;;;;5038468;28;20041;-66
2021/04/20 10:26:34;;;;;;;11.32;2.00;;;15.40;42.70;;;;;;5037786;28;20419;-66
2021/04/20 10:29:10;;;;;;;26.40;3.40;;;15.40;42.50;;;;;;5036637;28;20022;-66
2021/04/20 10:31:44;;;;;;;7.68;1.42;;;15.40;43.70;;;;;;5041671;28;20036;-66
2021/04/20 10:34:14;;;;;;;6.20;1.58;;;15.40;42.80;;;;;;5044005;28;20083;-66
2021/04/20 10:36:41;;;;;;;23.52;3.00;;;15.40;43.00;;;;;;5037415;28;20173;-66
2021/04/20 10:39:09;;;;;;;18.75;1.80;;;15.40;44.30;;;;;;5046120;28;20504;-66
2021/04/20 10:41:38;;;;;;;12.30;2.25;;;15.40;43.10;;;;;;5035064;28;20029;-66
2021/04/20 10:44:11;;;;;;;14.93;1.40;;;15.40;43.70;;;;;;5047659;28;20017;-66
2021/04/20 10:46:39;;;;;;;11.52;1.90;;;15.40;43.40;;;;;;5048959;28;20021;-66
2021/04/20 10:49:07;;;;;;;14.00;2.42;;;15.40;43.10;;;;;;5054625;28;20377;-66
2021/04/20 10:51:38;;;;;;;10.60;1.75;;;15.30;43.70;;;;;;5054478;28;20021;-66
2021/04/20 10:54:07;;;;;;;3.83;1.33;;;15.30;43.40;;;;;;5054537;28;20033;-66
2021/04/20 10:56:34;;;;;;;47.97;3.92;;;15.30;42.90;;;;;;5054338;28;20506;-66
2021/04/20 10:59:04;;;;;;;8.30;2.10;;;15.30;43.50;;;;;;5050364;28;20096;-66
2021/04/20 11:01:30;;;;;;;8.18;1.58;;;15.20;43.00;;;;;;5034789;28;20037;-66
2021/04/20 11:04:03;;;;;;;8.57;2.15;;;15.20;43.40;;;;;;5051009;28;20104;-66
2021/04/20 11:06:29;;;;;;;14.35;2.13;;;15.30;42.90;;;;;;5039734;28;20041;-66
2021/04/20 11:08:55;;;;;;;11.38;2.10;;;15.20;42.50;;;;;;5042485;28;20072;-66
2021/04/20 11:11:22;;;;;;;14.25;2.60;;;15.20;43.00;;;;;;5044017;28;20029;-66
2021/04/20 11:13:49;;;;;;;15.65;2.25;;;15.20;43.30;;;;;;5036991;28;20054;-66
2021/04/20 11:16:23;;;;;;;29.35;3.33;;;15.30;42.90;;;;;;5048751;28;20073;-66
2021/04/20 11:18:58;;;;;;;15.02;2.85;;;15.30;43.50;;;;;;5039666;28;20079;-66
2021/04/20 11:21:28;;;;;;;8.25;2.10;;;15.30;43.40;;;;;;5041786;28;20040;-66
2021/04/20 11:24:05;;;;;;;15.80;2.20;;;15.40;42.80;;;;;;5053966;28;20108;-66
2021/04/20 11:26:38;;;;;;;14.30;1.70;;;15.40;43.60;;;;;;5054209;28;20029;-66
2021/04/20 11:29:12;;;;;;;8.45;1.50;;;15.40;42.60;;;;;;5039078;28;20112;-66
2021/04/20 11:31:50;;;;;;;13.25;1.88;;;15.30;42.10;;;;;;5042941;28;20103;-66
2021/04/20 11:34:32;;;;;;;12.00;1.88;;;15.30;42.60;;;;;;5053666;28;20469;-67
2021/04/20 11:37:10;;;;;;;35.22;3.15;;;15.30;42.60;;;;;;5045204;28;20024;-67
2021/04/20 11:39:56;;;;;;;26.35;2.97;;;15.20;42.70;;;;;;5049910;28;20393;-66
2021/04/20 11:42:41;;;;;;;8.32;1.77;;;15.20;42.80;;;;;;5053144;28;20444;-66
2021/04/20 11:45:13;;;;;;;82.95;4.78;;;15.20;42.90;;;;;;5038942;28;20104;-66
2021/04/20 11:48:00;;;;;;;7.95;1.60;;;15.20;43.00;;;;;;5053191;28;20515;-66
2021/04/20 11:50:29;;;;;;;17.80;1.90;;;15.20;43.00;;;;;;5033302;28;20057;-67
2021/04/20 11:53:05;;;;;;;6.88;1.70;;;15.20;42.60;;;;;;5033234;28;20029;-66
2021/04/20 11:55:37;;;;;;;7.90;1.80;;;15.20;42.50;;;;;;5051528;28;20481;-67
2021/04/20 11:58:06;;;;;;;14.90;2.30;;;15.20;41.90;;;;;;5053494;28;20033;-66
2021/04/20 12:00:34;;;;;;;10.10;1.98;;;15.20;42.70;;;;;;5053249;28;20043;-66
2021/04/20 12:03:19;;;;;;;8.93;1.70;;;15.10;42.30;;;;;;5051832;28;20108;-66
2021/04/20 12:05:47;;;;;;;118.50;6.57;;;15.10;42.20;;;;;;5042287;28;20044;-67
2021/04/20 12:08:44;;;;;;;17.40;2.38;;;15.10;42.60;;;;;;5038537;28;20072;-66
2021/04/20 12:11:10;;;;;;;13.80;2.25;;;15.10;42.30;;;;;;5030341;28;20155;-66
2021/04/20 12:13:40;;;;;;;14.05;2.03;;;15.00;42.00;;;;;;5046644;28;20056;-66
2021/04/20 12:16:09;;;;;;;13.52;1.75;;;15.00;41.80;;;;;;5052842;28;20431;-66
2021/04/20 12:18:36;;;;;;;15.27;2.10;;;15.10;41.50;;;;;;5047049;28;20496;-66
2021/04/20 12:21:12;;;;;;;19.85;2.47;;;15.20;41.30;;;;;;5034766;28;20049;-66
2021/04/20 12:23:49;;;;;;;19.58;2.58;;;15.10;41.20;;;;;;5046727;28;20402;-67
2021/04/20 12:26:16;;;;;;;8.48;2.60;;;15.10;40.60;;;;;;5043015;28;20021;-66
2021/04/20 12:28:52;;;;;;;12.95;2.00;;;15.20;41.80;;;;;;5052402;28;20068;-66
2021/04/20 12:31:27;;;;;;;12.50;2.35;;;15.20;41.10;;;;;;5052553;28;20040;-66
2021/04/20 12:33:53;;;;;;;68.13;4.50;;;15.20;41.50;;;;;;5049434;28;20112;-67
2021/04/20 12:36:47;;;;;;;10.70;1.58;;;15.20;41.70;;;;;;5041625;28;20071;-66
2021/04/20 12:39:30;;;;;;;28.48;2.40;;;15.20;41.10;;;;;;5041421;28;20045;-66
2021/04/20 12:42:01;;;;;;;23.42;2.50;;;15.20;42.40;;;;;;5037176;28;20033;-66
2021/04/20 12:44:40;;;;;;;14.23;2.35;;;15.20;42.40;;;;;;5032364;28;20133;-66
2021/04/20 12:47:09;;;;;;;34.25;2.60;;;15.20;42.00;;;;;;5032497;28;20029;-66
2021/04/20 12:49:37;;;;;;;13.70;2.42;;;15.20;42.50;;;;;;5050516;28;20040;-66
2021/04/20 12:52:10;;;;;;;14.23;1.83;;;15.20;43.10;;;;;;5052209;28;20033;-66
2021/04/20 12:54:39;;;;;;;65.90;5.70;;;15.10;42.90;;;;;;5048414;28;20361;-66
2021/04/20 12:57:07;;;;;;;12.37;2.43;;;15.10;43.20;;;;;;5031513;28;20022;-66
2021/04/20 12:59:36;;;;;;;33.85;3.78;;;15.10;43.10;;;;;;5048753;28;20064;-67
2021/04/20 13:02:03;;;;;;;7.13;1.70;;;15.10;43.90;;;;;;5043374;28;20025;-66
2021/04/20 13:04:31;;;;;;;18.50;1.98;;;15.10;43.00;;;;;;5042911;28;20056;-66
2021/04/20 13:06:57;;;;;;;18.30;2.45;;;15.10;43.50;;;;;;5042281;28;20431;-66
2021/04/20 13:09:25;;;;;;;6.32;2.17;;;15.10;43.20;;;;;;5039932;28;20064;-66
2021/04/20 13:11:54;;;;;;;37.33;4.05;;;15.10;43.40;;;;;;5037995;28;20481;-67
2021/04/20 13:14:24;;;;;;;12.65;2.20;;;15.00;43.90;;;;;;5032051;28;20025;-66
2021/04/20 13:16:54;;;;;;;8.53;1.90;;;15.00;44.00;;;;;;5031963;28;20040;-66
2021/04/20 13:19:38;;;;;;;7.03;1.80;;;14.90;43.80;;;;;;5051110;28;20029;-66
2021/04/20 13:22:06;;;;;;;10.38;2.50;;;14.80;43.70;;;;;;5051526;28;20079;-66
2021/04/20 13:24:33;;;;;;;18.52;2.30;;;14.80;44.20;;;;;;5045699;28;20017;-66
2021/04/20 13:27:00;;;;;;;26.05;3.65;;;14.80;44.00;;;;;;5044232;28;20033;-66
2021/04/20 13:29:32;;;;;;;9.15;1.95;;;14.80;44.50;;;;;;5031714;28;20021;-66
2021/04/20 13:32:03;;;;;;;28.60;2.85;;;14.80;44.30;;;;;;5050123;28;20070;-66
2021/04/20 13:34:40;;;;;;;20.80;2.47;;;14.80;44.50;;;;;;5040043;28;20538;-66
2021/04/20 13:37:26;;;;;;;13.18;2.72;;;14.80;44.00;;;;;;5034679;28;20056;-66
2021/04/20 13:39:55;;;;;;;20.48;2.35;;;14.80;44.00;;;;;;5051713;28;20113;-66
2021/04/20 13:42:29;;;;;;;9.77;1.88;;;14.80;44.50;;;;;;5037287;28;20029;-66
2021/04/20 13:45:00;;;;;;;16.00;1.85;;;14.80;44.50;;;;;;5040041;28;20415;-66
2021/04/20 13:47:27;;;;;;;15.02;2.05;;;14.80;44.20;;;;;;5035631;28;20025;-66
2021/04/20 13:49:55;;;;;;;23.92;2.60;;;14.80;44.10;;;;;;5051280;28;20025;-66
2021/04/20 13:52:27;;;;;;;4.93;1.23;;;14.80;44.50;;;;;;5050517;28;20592;-66
2021/04/20 13:54:57;;;;;;;13.55;1.92;;;14.90;48.30;;;;;;5034690;28;20041;-68
2021/04/20 13:57:33;;;;;;;20.45;2.88;;;15.20;46.80;;;;;;5046985;28;20043;-67
2021/04/20 14:00:20;;;;;;;15.63;2.28;;;15.20;45.30;;;;;;5050952;28;20060;-67
2021/04/20 14:02:53;;;;;;;13.77;2.25;;;15.10;45.30;;;;;;5047678;28;20113;-67
2021/04/20 14:05:23;;;;;;;23.52;3.05;;;15.10;45.60;;;;;;5031651;28;20044;-67
2021/04/20 14:07:53;;;;;;;17.38;2.25;;;15.00;45.70;;;;;;5040543;28;20159;-67
2021/04/20 14:10:25;;;;;;;23.45;2.35;;;14.90;44.80;;;;;;5039999;28;20499;-67
2021/04/20 14:12:57;;;;;;;17.52;2.28;;;14.90;45.40;;;;;;5036180;28;20409;-67
2021/04/20 14:15:31;;;;;;;20.90;2.35;;;14.90;45.90;;;;;;5055221;28;20032;-68
2021/04/20 14:18:05;;;;;;;11.18;2.47;;;14.90;45.60;;;;;;5055104;28;20520;-68
2021/04/20 14:20:38;;;;;;;19.17;2.38;;;15.00;45.70;;;;;;5050848;28;20037;-68
2021/04/20 14:23:06;;;;;;;49.08;4.38;;;15.00;45.50;;;;;;5052393;28;20017;-68
2021/04/20 14:25:42;;;;;;;20.13;2.92;;;15.00;45.60;;;;;;5053917;28;20063;-68
2021/04/20 14:28:11;;;;;;;27.65;2.28;;;15.00;45.50;;;;;;5054906;28;20025;-69
2021/04/20 14:30:38;;;;;;;12.55;2.22;;;15.00;45.60;;;;;;5061396;28;20048;-69
2021/04/20 14:33:06;;;;;;;25.52;3.58;;;15.10;44.90;;;;;;5070359;28;20021;-68
2021/04/20 14:35:34;;;;;;;21.20;3.20;;;15.10;45.00;;;;;;5054585;28;20029;-68
2021/04/20 14:38:02;;;;;;;16.23;2.83;;;15.10;44.60;;;;;;5061631;28;20477;-69
2021/04/20 14:40:29;;;;;;;21.73;2.17;;;15.10;44.20;;;;;;5055316;28;20465;-69
2021/04/20 14:43:00;;;;;;;3.67;1.73;;;15.10;43.70;;;;;;5055118;28;20096;-68
2021/04/20 14:45:38;;;;;;;11.95;1.70;;;15.00;44.30;;;;;;5054925;28;20017;-68
2021/04/20 14:48:13;;;;;;;23.83;2.35;;;15.00;44.10;;;;;;5055328;28;20021;-68
2021/04/20 14:50:42;;;;;;;16.40;3.38;;;15.00;43.60;;;;;;5055480;28;20489;-68
2021/04/20 14:53:18;;;;;;;20.15;2.20;;;15.00;43.90;;;;;;5055219;28;20525;-68
2021/04/20 14:55:50;;;;;;;23.00;2.60;;;15.00;44.60;;;;;;5055145;28;20023;-68
2021/04/20 14:58:30;;;;;;;8.80;1.98;;;15.00;44.10;;;;;;5053617;28;20029;-68
2021/04/20 15:01:20;;;;;;;18.42;2.33;;;15.00;43.70;;;;;;5054791;28;20032;-68
2021/04/20 15:03:47;;;;;;;20.67;2.45;;;15.00;43.80;;;;;;5054894;28;20036;-69
2021/04/20 15:06:23;;;;;;;17.90;2.17;;;14.90;43.80;;;;;;5054860;28;20037;-68
2021/04/20 15:09:12;;;;;;;16.83;2.17;;;14.90;44.00;;;;;;5054649;28;20021;-68
2021/04/20 15:11:57;;;;;;;4.63;1.55;;;14.80;43.70;;;;;;5051825;28;20420;-67
2021/04/20 15:14:30;;;;;;;10.48;1.92;;;14.80;43.90;;;;;;5055250;28;20468;-68
2021/04/20 15:17:00;;;;;;;18.63;2.72;;;14.80;44.00;;;;;;5052190;28;20498;-68
2021/04/20 15:19:30;;;;;;;12.82;3.67;;;14.70;43.80;;;;;;5055297;28;20035;-68
2021/04/20 15:22:04;;;;;;;11.80;2.45;;;14.70;44.30;;;;;;5050456;28;20030;-67
2021/04/20 15:24:44;;;;;;;11.68;2.13;;;14.70;44.10;;;;;;5055099;28;20031;-68
2021/04/20 15:27:38;;;;;;;7.63;2.07;;;14.70;44.30;;;;;;5058386;28;20029;-68
2021/04/20 15:30:14;;;;;;;10.05;1.70;;;14.70;44.80;;;;;;5053236;28;20274;-67
2021/04/20 15:33:06;;;;;;;6.60;2.28;;;14.70;44.90;;;;;;5055536;28;20040;-67
2021/04/20 15:35:43;;;;;;;10.20;1.92;;;14.70;44.40;;;;;;5053338;28;20035;-67
2021/04/20 15:38:23;;;;;;;12.25;2.28;;;14.60;44.30;;;;;;5061062;28;20029;-68
2021/04/20 15:40:49;;;;;;;7.60;1.83;;;14.50;44.50;;;;;;5052784;28;20033;-68
2021/04/20 15:43:20;;;;;;;14.48;1.98;;;14.50;44.50;;;;;;5053485;28;20029;-67
2021/04/20 15:45:51;;;;;;;13.20;2.17;;;14.50;45.30;;;;;;5054111;28;20083;-67
2021/04/20 15:48:22;;;;;;;11.38;1.85;;;14.50;44.60;;;;;;5053749;28;20029;-68
2021/04/20 15:50:55;;;;;;;8.70;2.15;;;14.40;45.10;;;;;;5054135;28;20028;-68
2021/04/20 15:53:44;;;;;;;16.88;2.10;;;14.50;44.80;;;;;;5053816;28;20078;-68
2021/04/20 15:56:19;;;;;;;11.35;2.17;;;14.40;45.00;;;;;;5053760;28;20027;-67
2021/04/20 15:59:20;;;;;;;9.27;2.08;;;14.40;44.80;;;;;;5053934;28;20028;-68
2021/04/20 16:01:48;;;;;;;24.80;2.47;;;14.40;45.30;;;;;;5053624;28;20051;-67
2021/04/20 16:04:29;;;;;;;8.73;2.47;;;14.40;45.30;;;;;;5053624;28;20511;-67
2021/04/20 16:06:59;;;;;;;8.65;2.25;;;14.30;45.10;;;;;;5053692;28;20404;-67
2021/04/20 16:09:26;;;;;;;18.17;2.70;;;14.30;45.20;;;;;;5053332;28;20025;-68
2021/04/20 16:12:13;;;;;;;15.75;2.33;;;14.30;45.30;;;;;;5053629;28;20028;-68
2021/04/20 16:15:02;;;;;;;13.32;2.13;;;14.30;45.90;;;;;;5053743;28;20033;-66
2021/04/20 16:17:31;;;;;;;6.40;1.85;;;14.30;45.80;;;;;;5053821;28;20086;-66
2021/04/20 16:20:14;;;;;;;13.07;1.85;;;14.30;47.00;;;;;;5053335;28;20388;-67
2021/04/20 16:22:52;;;;;;;10.93;2.00;;;14.70;46.20;;;;;;5053290;28;20025;-67
2021/04/20 16:25:19;;;;;;;12.60;2.45;;;14.50;45.20;;;;;;5053508;28;20434;-67
2021/04/20 16:27:47;;;;;;;10.75;2.10;;;14.40;44.50;;;;;;5053511;28;20112;-67
2021/04/20 16:30:20;;;;;;;12.98;2.30;;;14.20;45.00;;;;;;5053286;28;20431;-67
2021/04/20 16:32:49;;;;;;;7.05;1.80;;;14.20;45.30;;;;;;5052083;28;20792;-67
2021/04/20 16:35:35;;;;;;;11.65;2.30;;;14.10;45.30;;;;;;5052864;28;20028;-67
2021/04/20 16:38:06;;;;;;;10.32;2.60;;;14.10;45.70;;;;;;5053076;28;20028;-67
2021/04/20 16:40:50;;;;;;;17.80;2.25;;;14.10;45.40;;;;;;5053128;28;20056;-67
2021/04/20 16:43:50;;;;;;;7.45;1.80;;;14.00;45.60;;;;;;5052940;28;20362;-67
2021/04/20 16:46:27;;;;;;;16.13;2.20;;;14.40;52.70;;;;;;5052791;28;20392;-67
2021/04/20 16:48:58;;;;;;;20.10;2.97;;;14.50;45.60;;;;;;5052861;28;20036;-67
2021/04/20 16:51:38;;;;;;;14.70;2.10;;;14.30;45.20;;;;;;5052943;28;20025;-67
2021/04/20 16:54:17;;;;;;;30.02;3.25;;;14.10;45.80;;;;;;5052653;28;20013;-67
2021/04/20 16:57:01;;;;;;;10.15;1.98;;;14.00;45.30;;;;;;5052605;28;20668;-67
2021/04/20 16:59:55;;;;;;;14.35;1.77;;;13.90;45.40;;;;;;5052409;28;20028;-67
2021/04/20 17:02:46;;;;;;;8.93;1.70;;;13.80;45.00;;;;;;5052452;28;20037;-67
2021/04/20 17:05:38;;;;;;;6.00;2.33;;;13.70;44.80;;;;;;5040910;28;20025;-67
2021/04/20 17:08:14;;;;;;;12.45;2.53;;;13.60;45.50;;;;;;5052520;28;20047;-67
2021/04/20 17:10:50;;;;;;;13.77;2.30;;;13.60;45.20;;;;;;5052500;28;20074;-67
2021/04/20 17:13:26;;;;;;;14.40;1.88;;;13.60;45.30;;;;;;5052224;28;20049;-67
2021/04/20 17:16:22;;;;;;;14.73;2.10;;;13.50;45.50;;;;;;5052380;28;20021;-68
2021/04/20 17:19:06;;;;;;;15.52;2.50;;;13.50;45.90;;;;;;5052593;28;20037;-67
2021/04/20 17:21:50;;;;;;;17.85;3.05;;;13.40;45.80;;;;;;5052208;28;20501;-68
2021/04/20 17:24:35;;;;;;;16.63;2.10;;;13.40;45.20;;;;;;5052276;28;20028;-68
2021/04/20 17:27:16;;;;;;;9.70;2.58;;;13.30;45.00;;;;;;5052392;28;20108;-67
2021/04/20 17:30:08;;;;;;;7.97;2.55;;;13.20;45.10;;;;;;5052615;28;20017;-68